createdAt,value
2017-06-26T19:02:33.641Z,60.50
2017-06-26T19:05:00.316Z,60.20
2017-06-26T19:07:26.983Z,59.40
2017-06-26T19:14:47.389Z,45.85
2017-06-26T19:17:15.083Z,46.49
2017-06-26T19:19:42.559Z,45.65
2017-06-26T19:22:09.259Z,46.58
2017-06-26T19:24:37.121Z,46.96
2017-06-26T19:27:04.685Z,46.34
2017-06-26T19:29:32.287Z,46.20
2017-06-26T19:31:59.101Z,46.48
2017-06-26T19:34:25.762Z,47.64
2017-06-26T19:36:52.731Z,48.22
2017-06-26T19:39:19.385Z,48.04
2017-06-26T19:41:46.069Z,46.60
2017-06-26T19:44:12.777Z,47.28
2017-06-26T19:46:40.203Z,48.41
2017-06-26T19:49:07.265Z,48.56
2017-06-26T19:51:33.989Z,48.24
2017-06-26T19:54:00.915Z,48.10
2017-06-26T19:56:27.607Z,48.02
2017-06-26T19:58:55.056Z,48.22
2017-06-26T20:01:22.927Z,48.34
2017-06-26T20:03:50.355Z,48.59
2017-06-26T20:06:17.356Z,48.66
2017-06-26T20:08:44.091Z,48.71
2017-06-26T20:11:10.989Z,48.81
2017-06-26T20:13:38.115Z,48.74
2017-06-26T20:16:04.782Z,48.80
2017-06-26T20:18:31.429Z,48.70
2017-06-26T20:20:58.229Z,48.81
2017-06-26T20:23:24.900Z,48.90
2017-06-26T20:25:51.918Z,48.98
2017-06-26T20:28:18.859Z,49.23
2017-06-26T20:30:45.541Z,49.57
2017-06-26T20:33:13.055Z,49.67
2017-06-26T20:35:39.795Z,49.83
2017-06-26T20:38:06.462Z,50.04
2017-06-26T20:40:33.688Z,50.91
2017-06-26T20:43:00.363Z,50.79
2017-06-26T20:45:27.052Z,53.89
2017-06-26T20:47:53.851Z,55.95
2017-06-26T20:50:21.363Z,56.57
2017-06-26T20:52:48.439Z,51.97
2017-06-26T20:55:15.120Z,53.57
2017-06-26T20:57:41.865Z,53.37
2017-06-26T21:00:08.746Z,53.42
2017-06-26T21:02:35.408Z,53.41
2017-06-26T21:05:02.530Z,52.65
2017-06-26T21:07:29.198Z,52.20
2017-06-26T21:09:55.854Z,51.65
2017-06-26T21:12:23.280Z,51.82
2017-06-26T21:14:49.971Z,51.82
2017-06-26T21:17:16.971Z,52.35
2017-06-26T21:19:43.681Z,51.98
2017-06-26T21:22:10.343Z,51.87
2017-06-26T21:24:37.203Z,51.91
2017-06-26T21:27:04.611Z,51.67
2017-06-26T21:29:31.665Z,51.44
2017-06-26T21:31:58.388Z,51.77
2017-06-26T21:34:25.066Z,52.06
2017-06-26T21:36:51.744Z,52.21
2017-06-26T21:39:18.520Z,52.42
2017-06-26T21:41:45.668Z,52.31
2017-06-26T21:44:12.348Z,52.56
2017-06-26T21:46:39.026Z,52.58
2017-06-26T21:49:05.706Z,52.86
2017-06-26T21:51:32.379Z,54.01
2017-06-26T21:54:00.099Z,53.84
2017-06-26T21:56:26.824Z,52.57
2017-06-26T21:58:53.677Z,52.46
2017-06-26T22:01:20.546Z,52.43
2017-06-26T22:03:47.265Z,52.13
2017-06-26T22:06:14.317Z,52.01
2017-06-26T22:08:40.966Z,52.46
2017-06-26T22:11:07.626Z,52.68
2017-06-26T22:13:35.079Z,52.41
2017-06-26T22:16:02.522Z,52.39
2017-06-26T22:18:29.560Z,52.40
2017-06-26T22:20:56.203Z,52.98
2017-06-26T22:23:23.042Z,52.79
2017-06-26T22:25:49.719Z,52.82
2017-06-26T22:28:16.372Z,53.01
2017-06-26T22:30:43.355Z,53.08
2017-06-26T22:33:10.011Z,53.31
2017-06-26T22:35:36.675Z,53.36
2017-06-26T22:38:03.462Z,53.47
2017-06-26T22:40:30.156Z,54.31
2017-06-26T22:42:57.163Z,54.23
2017-06-26T22:45:23.825Z,53.76
2017-06-26T22:47:51.260Z,54.31
2017-06-26T22:50:17.962Z,54.28
2017-06-26T22:52:44.630Z,54.09
2017-06-26T22:55:11.861Z,54.58
2017-06-26T22:57:38.580Z,55.57
2017-06-26T23:00:05.243Z,55.65
2017-06-26T23:02:31.978Z,55.27
2017-06-26T23:04:58.662Z,54.49
2017-06-26T23:07:25.686Z,54.75
2017-06-26T23:09:52.329Z,53.97
2017-06-26T23:12:18.990Z,54.06
2017-06-26T23:14:46.385Z,54.85
2017-06-26T23:17:13.255Z,54.28
2017-06-26T23:19:40.489Z,55.48
2017-06-26T23:22:07.392Z,55.30
2017-06-26T23:24:34.814Z,54.98
2017-06-26T23:27:01.482Z,55.22
2017-06-26T23:29:28.987Z,54.91
2017-06-26T23:31:55.982Z,54.76
2017-06-26T23:34:23.375Z,54.48
2017-06-26T23:36:50.132Z,54.46
2017-06-26T23:39:16.975Z,54.38
2017-06-26T23:41:43.813Z,55.12
2017-06-26T23:44:10.861Z,55.53
2017-06-26T23:46:37.600Z,55.67
2017-06-26T23:49:04.235Z,55.08
2017-06-26T23:51:30.910Z,55.12
2017-06-26T23:53:57.563Z,55.22
2017-06-26T23:56:25.307Z,55.82
2017-06-26T23:58:52.015Z,54.98
